CFG12R EDDM-EDDS
Flight info
| Callsign | CFG12R |
|---|---|
| Flight time | 0h 26m |
| Altitude | 16000 |
| Route | RIDAR7Q RIDAR L173 DODIL T127 TEKSI TEKSI5A |
| Aircraft | A321/M-SDE3FGHIRWY/LB1 |
Departure
| Time | 2026-05-04 16:00 |
|---|---|
| Airport | Munich Airport (EDDM) |
Arrival
| Time | 2026-05-04 16:26 |
|---|---|
| Airport | Stuttgart Airport (EDDS) |
| Time | Latitude | Longitude | Altitude | Speed | Heading |
|---|---|---|---|---|---|
| 2026-05-04 15:33 | 48.35374 | 11.78297 | 1485 ft | 0 kts | 83° |
| 2026-05-04 15:44 | 48.35374 | 11.78293 | 1486 ft | 2 kts | 83° |
| 2026-05-04 15:44 | 48.35370 | 11.78255 | 1473 ft | 4 kts | 83° |
| 2026-05-04 15:44 | 48.35368 | 11.78222 | 1475 ft | 4 kts | 70° |
| 2026-05-04 15:45 | 48.35355 | 11.78199 | 1472 ft | 4 kts | 6° |
| 2026-05-04 15:45 | 48.35330 | 11.78201 | 1478 ft | 4 kts | 353° |
| 2026-05-04 15:45 | 48.35303 | 11.78205 | 1477 ft | 4 kts | 353° |
| 2026-05-04 15:45 | 48.35293 | 11.78207 | 1473 ft | 1 kts | 353° |
| 2026-05-04 15:53 | 48.35294 | 11.78207 | 1486 ft | 1 kts | 353° |
| 2026-05-04 15:53 | 48.35350 | 11.78190 | 1478 ft | 12 kts | 337° |
| 2026-05-04 15:53 | 48.35374 | 11.78103 | 1480 ft | 8 kts | 262° |
| 2026-05-04 15:53 | 48.35370 | 11.78022 | 1476 ft | 8 kts | 266° |
| 2026-05-04 15:54 | 48.35361 | 11.77899 | 1485 ft | 13 kts | 263° |
| 2026-05-04 15:54 | 48.35375 | 11.77820 | 1476 ft | 4 kts | 334° |
| 2026-05-04 15:54 | 48.35418 | 11.77807 | 1485 ft | 7 kts | 352° |
| 2026-05-04 15:54 | 48.35462 | 11.77798 | 1481 ft | 6 kts | 353° |
| 2026-05-04 15:55 | 48.35508 | 11.77791 | 1482 ft | 8 kts | 354° |
| 2026-05-04 15:55 | 48.35583 | 11.77779 | 1485 ft | 11 kts | 354° |
| 2026-05-04 15:55 | 48.35660 | 11.77767 | 1475 ft | 11 kts | 353° |
| 2026-05-04 15:55 | 48.35732 | 11.77751 | 1482 ft | 8 kts | 347° |
| 2026-05-04 15:56 | 48.35784 | 11.77719 | 1479 ft | 9 kts | 338° |
| 2026-05-04 15:56 | 48.35841 | 11.77698 | 1479 ft | 8 kts | 353° |
| 2026-05-04 15:56 | 48.35895 | 11.77688 | 1477 ft | 8 kts | 353° |
| 2026-05-04 15:56 | 48.35950 | 11.77663 | 1483 ft | 8 kts | 316° |
| 2026-05-04 15:57 | 48.35959 | 11.77559 | 1485 ft | 14 kts | 264° |
| 2026-05-04 15:57 | 48.35947 | 11.77419 | 1473 ft | 13 kts | 263° |
| 2026-05-04 15:57 | 48.35937 | 11.77288 | 1485 ft | 12 kts | 263° |
| 2026-05-04 15:57 | 48.35927 | 11.77166 | 1485 ft | 11 kts | 264° |
| 2026-05-04 15:58 | 48.35941 | 11.77062 | 1480 ft | 9 kts | 308° |
| 2026-05-04 15:58 | 48.35981 | 11.76992 | 1476 ft | 8 kts | 318° |
| 2026-05-04 15:58 | 48.36031 | 11.76972 | 1485 ft | 7 kts | 355° |
| 2026-05-04 15:58 | 48.36078 | 11.76966 | 1485 ft | 7 kts | 355° |
| 2026-05-04 15:59 | 48.36176 | 11.76948 | 1480 ft | 22 kts | 352° |
| 2026-05-04 15:59 | 48.36271 | 11.76939 | 1480 ft | 9 kts | 15° |
| 2026-05-04 15:59 | 48.36293 | 11.76998 | 1480 ft | 8 kts | 79° |
| 2026-05-04 15:59 | 48.36320 | 11.77333 | 1486 ft | 67 kts | 83° |
| 2026-05-04 16:00 | 48.36400 | 11.78349 | 1486 ft | 126 kts | 82° |
| 2026-05-04 16:00 | 48.36524 | 11.79886 | 1487 ft | 169 kts | 85° |
| 2026-05-04 16:00 | 48.36632 | 11.81634 | 2020 ft | 168 kts | 83° |
| 2026-05-04 16:00 | 48.36760 | 11.83386 | 2602 ft | 169 kts | 83° |
| 2026-05-04 16:01 | 48.36961 | 11.85197 | 2930 ft | 185 kts | 70° |
| 2026-05-04 16:01 | 48.37880 | 11.86624 | 3075 ft | 205 kts | 23° |
| 2026-05-04 16:01 | 48.39366 | 11.86873 | 3205 ft | 227 kts | 358° |
| 2026-05-04 16:01 | 48.41026 | 11.86669 | 3393 ft | 254 kts | 344° |
| 2026-05-04 16:02 | 48.42564 | 11.85264 | 3929 ft | 267 kts | 313° |
| 2026-05-04 16:02 | 48.43774 | 11.83111 | 4766 ft | 271 kts | 309° |
| 2026-05-04 16:02 | 48.46233 | 11.78746 | 6456 ft | 279 kts | 310° |
| 2026-05-04 16:03 | 48.47506 | 11.76517 | 7280 ft | 282 kts | 309° |
| 2026-05-04 16:03 | 48.48793 | 11.74265 | 8119 ft | 285 kts | 309° |
| 2026-05-04 16:03 | 48.50092 | 11.71985 | 8959 ft | 288 kts | 308° |
| 2026-05-04 16:03 | 48.51402 | 11.69668 | 9772 ft | 292 kts | 306° |
| 2026-05-04 16:04 | 48.52082 | 11.68104 | 10191 ft | 292 kts | 293° |
| 2026-05-04 16:04 | 48.53044 | 11.61774 | 10661 ft | 333 kts | 276° |
| 2026-05-04 16:04 | 48.53411 | 11.58249 | 10808 ft | 356 kts | 276° |
| 2026-05-04 16:05 | 48.53807 | 11.54448 | 11049 ft | 374 kts | 277° |
| 2026-05-04 16:05 | 48.54214 | 11.50533 | 11614 ft | 381 kts | 277° |
| 2026-05-04 16:05 | 48.55074 | 11.42544 | 12939 ft | 390 kts | 277° |
| 2026-05-04 16:06 | 48.55517 | 11.38485 | 13595 ft | 394 kts | 277° |
| 2026-05-04 16:06 | 48.56718 | 11.27496 | 15150 ft | 402 kts | 277° |
| 2026-05-04 16:07 | 48.57313 | 11.21952 | 15795 ft | 405 kts | 277° |
| 2026-05-04 16:07 | 48.58687 | 11.09086 | 15951 ft | 422 kts | 277° |
| 2026-05-04 16:08 | 48.59153 | 11.04715 | 15953 ft | 422 kts | 277° |
| 2026-05-04 16:08 | 48.60526 | 10.91628 | 15957 ft | 422 kts | 276° |
| 2026-05-04 16:09 | 48.61433 | 10.82873 | 15959 ft | 422 kts | 276° |
| 2026-05-04 16:09 | 48.62341 | 10.74106 | 15968 ft | 422 kts | 276° |
| 2026-05-04 16:10 | 48.63241 | 10.65336 | 15977 ft | 422 kts | 276° |
| 2026-05-04 16:11 | 48.64567 | 10.52234 | 15265 ft | 418 kts | 276° |
| 2026-05-04 16:11 | 48.64998 | 10.47952 | 15024 ft | 417 kts | 276° |
| 2026-05-04 16:12 | 48.66289 | 10.35008 | 14305 ft | 413 kts | 276° |
| 2026-05-04 16:12 | 48.67504 | 10.22188 | 13575 ft | 407 kts | 271° |
| 2026-05-04 16:13 | 48.66879 | 10.13847 | 13052 ft | 400 kts | 259° |
| 2026-05-04 16:13 | 48.66004 | 10.05570 | 12540 ft | 397 kts | 259° |
| 2026-05-04 16:14 | 48.65116 | 9.97360 | 12018 ft | 394 kts | 258° |
| 2026-05-04 16:14 | 48.64232 | 9.89213 | 11516 ft | 392 kts | 258° |
| 2026-05-04 16:15 | 48.62922 | 9.77113 | 10778 ft | 389 kts | 258° |
| 2026-05-04 16:16 | 48.62073 | 9.69351 | 10307 ft | 386 kts | 258° |
| 2026-05-04 16:16 | 48.60846 | 9.58200 | 9726 ft | 322 kts | 257° |
| 2026-05-04 16:17 | 48.60145 | 9.51868 | 9322 ft | 312 kts | 257° |
| 2026-05-04 16:18 | 48.59012 | 9.41931 | 8527 ft | 323 kts | 258° |
| 2026-05-04 16:18 | 48.58635 | 9.38596 | 8283 ft | 321 kts | 258° |
| 2026-05-04 16:19 | 48.57487 | 9.28423 | 7673 ft | 331 kts | 258° |
| 2026-05-04 16:19 | 48.56697 | 9.21510 | 6373 ft | 334 kts | 258° |
| 2026-05-04 16:20 | 48.55519 | 9.11252 | 4711 ft | 329 kts | 261° |
| 2026-05-04 16:20 | 48.54746 | 9.04523 | 3983 ft | 315 kts | 262° |
| 2026-05-04 16:21 | 48.56964 | 8.97787 | 4009 ft | 227 kts | 340° |
| 2026-05-04 16:22 | 48.59897 | 8.96444 | 4015 ft | 225 kts | 343° |
| 2026-05-04 16:22 | 48.63724 | 8.98348 | 4022 ft | 211 kts | 43° |
| 2026-05-04 16:23 | 48.65594 | 9.04401 | 3423 ft | 213 kts | 71° |
| 2026-05-04 16:24 | 48.66941 | 9.11463 | 2496 ft | 153 kts | 72° |
| 2026-05-04 16:25 | 48.67525 | 9.14517 | 2127 ft | 150 kts | 70° |
| 2026-05-04 16:26 | 48.68633 | 9.20327 | 1343 ft | 141 kts | 71° |
| 2026-05-04 16:26 | 48.69138 | 9.22869 | 1287 ft | 29 kts | 57° |
| 2026-05-04 16:27 | 48.69297 | 9.23137 | 1287 ft | 10 kts | 28° |
| 2026-05-04 16:28 | 48.69403 | 9.23006 | 1288 ft | 14 kts | 255° |
| 2026-05-04 16:28 | 48.69319 | 9.22562 | 1290 ft | 14 kts | 254° |
| 2026-05-04 16:29 | 48.69233 | 9.22117 | 1286 ft | 8 kts | 257° |
| 2026-05-04 16:30 | 48.69145 | 9.21645 | 1290 ft | 14 kts | 252° |
| 2026-05-04 16:31 | 48.69088 | 9.21344 | 1288 ft | 12 kts | 254° |
| 2026-05-04 16:31 | 48.69013 | 9.20953 | 1288 ft | 17 kts | 254° |
| 2026-05-04 16:32 | 48.69006 | 9.20561 | 1288 ft | 12 kts | 313° |
| 2026-05-04 16:33 | 48.69056 | 9.20408 | 1286 ft | 5 kts | 260° |
| 2026-05-04 16:33 | 48.69031 | 9.20266 | 1289 ft | 7 kts | 254° |
| 2026-05-04 16:34 | 48.68986 | 9.20044 | 1289 ft | 9 kts | 244° |
| 2026-05-04 16:34 | 48.68952 | 9.19964 | 1288 ft | 9 kts | 237° |
| 2026-05-04 16:35 | 48.68888 | 9.19803 | 1287 ft | 7 kts | 245° |
| 2026-05-04 16:35 | 48.68899 | 9.19741 | 1288 ft | 2 kts | 339° |
| 2026-05-04 16:36 | 48.68919 | 9.19731 | 1286 ft | 2 kts | 342° |
| 2026-05-04 16:36 | 48.68949 | 9.19717 | 1287 ft | 0 kts | 343° |
| 2026-05-04 16:37 | 48.68950 | 9.19717 | 1287 ft | 0 kts | 343° |